sensor_id;sensor_type;location;lat;lon;timestamp;P1;durP1;ratioP1;P2;durP2;ratioP2
11269;SDS011;5692;48.956;9.200;2024-03-02T00:01:27;326.73;;;311.13;;
11269;SDS011;5692;48.956;9.200;2024-03-02T00:03:53;319.17;;;303.92;;
11269;SDS011;5692;48.956;9.200;2024-03-02T00:06:20;322.38;;;306.98;;
11269;SDS011;5692;48.956;9.200;2024-03-02T00:08:49;317.23;;;302.05;;
11269;SDS011;5692;48.956;9.200;2024-03-02T00:11:15;328.60;;;312.90;;
11269;SDS011;5692;48.956;9.200;2024-03-02T00:13:41;324.90;;;309.40;;
11269;SDS011;5692;48.956;9.200;2024-03-02T00:16:07;332.00;;;316.13;;
11269;SDS011;5692;48.956;9.200;2024-03-02T00:18:34;323.42;;;307.98;;
11269;SDS011;5692;48.956;9.200;2024-03-02T00:21:00;326.67;;;311.08;;
11269;SDS011;5692;48.956;9.200;2024-03-02T00:23:29;318.40;;;303.20;;
11269;SDS011;5692;48.956;9.200;2024-03-02T00:25:56;335.17;;;319.17;;
11269;SDS011;5692;48.956;9.200;2024-03-02T00:28:23;330.40;;;314.63;;
11269;SDS011;5692;48.956;9.200;2024-03-02T00:33:15;322.10;;;306.70;;
11269;SDS011;5692;48.956;9.200;2024-03-02T00:35:44;328.88;;;313.17;;
11269;SDS011;5692;48.956;9.200;2024-03-02T00:38:10;328.10;;;312.45;;
11269;SDS011;5692;48.956;9.200;2024-03-02T00:40:36;319.77;;;304.50;;
11269;SDS011;5692;48.956;9.200;2024-03-02T00:43:02;312.80;;;297.85;;
11269;SDS011;5692;48.956;9.200;2024-03-02T00:45:28;315.95;;;300.88;;
11269;SDS011;5692;48.956;9.200;2024-03-02T00:47:54;301.58;;;287.17;;
11269;SDS011;5692;48.956;9.200;2024-03-02T00:50:20;302.27;;;287.85;;
11269;SDS011;5692;48.956;9.200;2024-03-02T00:52:47;308.60;;;293.85;;
11269;SDS011;5692;48.956;9.200;2024-03-02T00:55:15;322.38;;;306.98;;
11269;SDS011;5692;48.956;9.200;2024-03-02T00:57:41;324.38;;;308.88;;
11269;SDS011;5692;48.956;9.200;2024-03-02T01:00:09;326.27;;;310.67;;
11269;SDS011;5692;48.956;9.200;2024-03-02T01:02:37;315.63;;;300.52;;
11269;SDS011;5692;48.956;9.200;2024-03-02T01:05:03;310.25;;;295.42;;
11269;SDS011;5692;48.956;9.200;2024-03-02T01:07:30;310.88;;;296.02;;
11269;SDS011;5692;48.956;9.200;2024-03-02T01:09:56;307.05;;;292.35;;
11269;SDS011;5692;48.956;9.200;2024-03-02T01:12:22;311.35;;;296.45;;
11269;SDS011;5692;48.956;9.200;2024-03-02T01:14:48;298.90;;;284.60;;
11269;SDS011;5692;48.956;9.200;2024-03-02T01:17:14;309.25;;;294.50;;
11269;SDS011;5692;48.956;9.200;2024-03-02T01:19:41;309.60;;;294.80;;
11269;SDS011;5692;48.956;9.200;2024-03-02T01:22:09;316.50;;;301.40;;
11269;SDS011;5692;48.956;9.200;2024-03-02T01:24:40;323.30;;;307.85;;
11269;SDS011;5692;48.956;9.200;2024-03-02T01:27:06;309.77;;;294.98;;
11269;SDS011;5692;48.956;9.200;2024-03-02T01:29:32;306.83;;;292.17;;
11269;SDS011;5692;48.956;9.200;2024-03-02T01:31:58;323.00;;;307.58;;
11269;SDS011;5692;48.956;9.200;2024-03-02T01:34:25;322.08;;;306.70;;
11269;SDS011;5692;48.956;9.200;2024-03-02T01:36:51;323.25;;;307.83;;
11269;SDS011;5692;48.956;9.200;2024-03-02T01:39:17;322.05;;;306.65;;
11269;SDS011;5692;48.956;9.200;2024-03-02T01:41:43;323.42;;;307.98;;
11269;SDS011;5692;48.956;9.200;2024-03-02T01:44:09;331.27;;;315.45;;
11269;SDS011;5692;48.956;9.200;2024-03-02T01:46:35;318.92;;;303.70;;
11269;SDS011;5692;48.956;9.200;2024-03-02T01:49:01;329.13;;;313.40;;
11269;SDS011;5692;48.956;9.200;2024-03-02T01:51:30;319.05;;;303.80;;
11269;SDS011;5692;48.956;9.200;2024-03-02T01:53:56;311.90;;;297.00;;
11269;SDS011;5692;48.956;9.200;2024-03-02T01:56:22;298.33;;;284.05;;
11269;SDS011;5692;48.956;9.200;2024-03-02T01:58:49;310.60;;;295.75;;
11269;SDS011;5692;48.956;9.200;2024-03-02T02:01:15;311.45;;;296.55;;
11269;SDS011;5692;48.956;9.200;2024-03-02T02:03:43;320.65;;;305.33;;
11269;SDS011;5692;48.956;9.200;2024-03-02T02:06:09;312.02;;;297.13;;
11269;SDS011;5692;48.956;9.200;2024-03-02T02:08:36;310.40;;;295.58;;
11269;SDS011;5692;48.956;9.200;2024-03-02T02:11:03;318.00;;;302.80;;
11269;SDS011;5692;48.956;9.200;2024-03-02T02:13:29;330.63;;;314.85;;
11269;SDS011;5692;48.956;9.200;2024-03-02T02:15:55;314.90;;;299.88;;
11269;SDS011;5692;48.956;9.200;2024-03-02T02:18:21;306.90;;;292.20;;
11269;SDS011;5692;48.956;9.200;2024-03-02T02:20:47;314.38;;;299.35;;
11269;SDS011;5692;48.956;9.200;2024-03-02T02:23:13;301.10;;;286.70;;
11269;SDS011;5692;48.956;9.200;2024-03-02T02:25:38;324.83;;;309.33;;
11269;SDS011;5692;48.956;9.200;2024-03-02T02:28:04;306.00;;;291.40;;
11269;SDS011;5692;48.956;9.200;2024-03-02T02:30:31;314.50;;;299.50;;
11269;SDS011;5692;48.956;9.200;2024-03-02T02:32:57;313.85;;;298.85;;
11269;SDS011;5692;48.956;9.200;2024-03-02T02:35:23;307.90;;;293.20;;
11269;SDS011;5692;48.956;9.200;2024-03-02T02:37:49;308.47;;;293.73;;
11269;SDS011;5692;48.956;9.200;2024-03-02T02:40:19;308.35;;;293.63;;
11269;SDS011;5692;48.956;9.200;2024-03-02T02:42:44;304.47;;;289.93;;
11269;SDS011;5692;48.956;9.200;2024-03-02T02:45:10;304.77;;;290.20;;
11269;SDS011;5692;48.956;9.200;2024-03-02T02:47:38;314.30;;;299.30;;
11269;SDS011;5692;48.956;9.200;2024-03-02T02:50:03;301.17;;;286.77;;
11269;SDS011;5692;48.956;9.200;2024-03-02T02:52:32;270.63;;;257.70;;
11269;SDS011;5692;48.956;9.200;2024-03-02T02:54:58;296.92;;;282.73;;
11269;SDS011;5692;48.956;9.200;2024-03-02T02:57:24;297.67;;;283.45;;
11269;SDS011;5692;48.956;9.200;2024-03-02T02:59:50;292.03;;;278.07;;
11269;SDS011;5692;48.956;9.200;2024-03-02T03:02:15;300.90;;;286.50;;
11269;SDS011;5692;48.956;9.200;2024-03-02T03:04:41;311.83;;;296.93;;
11269;SDS011;5692;48.956;9.200;2024-03-02T03:07:07;289.00;;;275.20;;
11269;SDS011;5692;48.956;9.200;2024-03-02T03:09:32;288.50;;;274.70;;
11269;SDS011;5692;48.956;9.200;2024-03-02T03:11:58;289.47;;;275.63;;
11269;SDS011;5692;48.956;9.200;2024-03-02T03:14:23;288.67;;;274.87;;
11269;SDS011;5692;48.956;9.200;2024-03-02T03:16:49;282.70;;;269.20;;
11269;SDS011;5692;48.956;9.200;2024-03-02T03:19:15;291.65;;;277.73;;
11269;SDS011;5692;48.956;9.200;2024-03-02T03:21:42;289.30;;;275.50;;
11269;SDS011;5692;48.956;9.200;2024-03-02T03:24:08;289.42;;;275.63;;
11269;SDS011;5692;48.956;9.200;2024-03-02T03:26:37;294.95;;;280.85;;
11269;SDS011;5692;48.956;9.200;2024-03-02T03:29:04;296.10;;;281.95;;
11269;SDS011;5692;48.956;9.200;2024-03-02T03:31:30;290.60;;;276.70;;
11269;SDS011;5692;48.956;9.200;2024-03-02T03:33:56;277.15;;;263.90;;
11269;SDS011;5692;48.956;9.200;2024-03-02T03:36:22;291.30;;;277.38;;
11269;SDS011;5692;48.956;9.200;2024-03-02T03:38:48;290.58;;;276.67;;
11269;SDS011;5692;48.956;9.200;2024-03-02T03:41:14;295.60;;;281.50;;
11269;SDS011;5692;48.956;9.200;2024-03-02T03:43:40;298.30;;;284.05;;
11269;SDS011;5692;48.956;9.200;2024-03-02T03:46:06;308.95;;;294.20;;
11269;SDS011;5692;48.956;9.200;2024-03-02T03:48:32;298.92;;;284.63;;
11269;SDS011;5692;48.956;9.200;2024-03-02T03:50:58;309.33;;;294.53;;
11269;SDS011;5692;48.956;9.200;2024-03-02T03:53:24;296.10;;;281.95;;
11269;SDS011;5692;48.956;9.200;2024-03-02T03:55:50;295.77;;;281.65;;
11269;SDS011;5692;48.956;9.200;2024-03-02T03:58:16;304.02;;;289.50;;
11269;SDS011;5692;48.956;9.200;2024-03-02T04:00:43;306.13;;;291.50;;
11269;SDS011;5692;48.956;9.200;2024-03-02T04:03:09;301.08;;;286.67;;
11269;SDS011;5692;48.956;9.200;2024-03-02T04:05:35;290.30;;;276.42;;
11269;SDS011;5692;48.956;9.200;2024-03-02T04:08:01;307.70;;;293.00;;
11269;SDS011;5692;48.956;9.200;2024-03-02T04:10:27;294.67;;;280.58;;
11269;SDS011;5692;48.956;9.200;2024-03-02T04:12:55;302.90;;;288.40;;
11269;SDS011;5692;48.956;9.200;2024-03-02T04:15:20;298.53;;;284.23;;
11269;SDS011;5692;48.956;9.200;2024-03-02T04:17:48;308.35;;;293.65;;
11269;SDS011;5692;48.956;9.200;2024-03-02T04:20:14;297.10;;;282.90;;
11269;SDS011;5692;48.956;9.200;2024-03-02T04:22:40;299.38;;;285.08;;
11269;SDS011;5692;48.956;9.200;2024-03-02T04:25:06;304.85;;;290.27;;
11269;SDS011;5692;48.956;9.200;2024-03-02T04:27:32;303.42;;;288.92;;
11269;SDS011;5692;48.956;9.200;2024-03-02T04:29:58;286.15;;;272.48;;
11269;SDS011;5692;48.956;9.200;2024-03-02T04:32:25;307.42;;;292.73;;
11269;SDS011;5692;48.956;9.200;2024-03-02T04:34:51;312.92;;;297.98;;
11269;SDS011;5692;48.956;9.200;2024-03-02T04:37:17;316.83;;;301.67;;
11269;SDS011;5692;48.956;9.200;2024-03-02T04:39:43;305.60;;;290.98;;
11269;SDS011;5692;48.956;9.200;2024-03-02T04:42:09;298.00;;;283.77;;
11269;SDS011;5692;48.956;9.200;2024-03-02T04:44:35;293.47;;;279.47;;
11269;SDS011;5692;48.956;9.200;2024-03-02T04:47:03;305.63;;;291.02;;
11269;SDS011;5692;48.956;9.200;2024-03-02T04:49:29;303.95;;;289.42;;
11269;SDS011;5692;48.956;9.200;2024-03-02T04:51:55;301.85;;;287.45;;
11269;SDS011;5692;48.956;9.200;2024-03-02T04:54:24;310.40;;;295.58;;
11269;SDS011;5692;48.956;9.200;2024-03-02T04:56:51;297.17;;;282.98;;
11269;SDS011;5692;48.956;9.200;2024-03-02T04:59:16;305.23;;;290.67;;
11269;SDS011;5692;48.956;9.200;2024-03-02T05:01:43;299.38;;;285.08;;
11269;SDS011;5692;48.956;9.200;2024-03-02T05:04:09;309.70;;;294.90;;
11269;SDS011;5692;48.956;9.200;2024-03-02T05:06:40;313.10;;;298.13;;
11269;SDS011;5692;48.956;9.200;2024-03-02T05:09:06;312.23;;;297.33;;
11269;SDS011;5692;48.956;9.200;2024-03-02T05:11:32;298.75;;;284.48;;
11269;SDS011;5692;48.956;9.200;2024-03-02T05:14:04;297.35;;;283.15;;
11269;SDS011;5692;48.956;9.200;2024-03-02T05:16:34;310.38;;;295.58;;
11269;SDS011;5692;48.956;9.200;2024-03-02T05:19:00;309.45;;;294.65;;
11269;SDS011;5692;48.956;9.200;2024-03-02T05:21:26;318.13;;;302.93;;
11269;SDS011;5692;48.956;9.200;2024-03-02T05:23:52;313.77;;;298.77;;
11269;SDS011;5692;48.956;9.200;2024-03-02T05:26:17;318.10;;;302.90;;
11269;SDS011;5692;48.956;9.200;2024-03-02T05:28:43;323.47;;;308.00;;
11269;SDS011;5692;48.956;9.200;2024-03-02T05:31:11;319.57;;;304.30;;
11269;SDS011;5692;48.956;9.200;2024-03-02T05:33:40;318.33;;;303.10;;
11269;SDS011;5692;48.956;9.200;2024-03-02T05:36:06;326.13;;;310.52;;
11269;SDS011;5692;48.956;9.200;2024-03-02T05:38:34;320.33;;;305.02;;
11269;SDS011;5692;48.956;9.200;2024-03-02T05:41:00;324.70;;;309.20;;
11269;SDS011;5692;48.956;9.200;2024-03-02T05:43:26;314.43;;;299.43;;
11269;SDS011;5692;48.956;9.200;2024-03-02T05:45:51;313.40;;;298.43;;
11269;SDS011;5692;48.956;9.200;2024-03-02T05:48:17;303.23;;;288.73;;
11269;SDS011;5692;48.956;9.200;2024-03-02T05:50:43;302.43;;;287.97;;
11269;SDS011;5692;48.956;9.200;2024-03-02T05:53:08;301.03;;;286.63;;
11269;SDS011;5692;48.956;9.200;2024-03-02T05:55:34;303.30;;;288.80;;
11269;SDS011;5692;48.956;9.200;2024-03-02T05:58:02;324.10;;;308.60;;
11269;SDS011;5692;48.956;9.200;2024-03-02T06:00:30;324.30;;;308.80;;
11269;SDS011;5692;48.956;9.200;2024-03-02T06:02:59;324.90;;;309.40;;
11269;SDS011;5692;48.956;9.200;2024-03-02T06:05:25;302.98;;;288.48;;
11269;SDS011;5692;48.956;9.200;2024-03-02T06:07:53;310.15;;;295.35;;
11269;SDS011;5692;48.956;9.200;2024-03-02T06:10:19;299.30;;;285.00;;
11269;SDS011;5692;48.956;9.200;2024-03-02T06:12:48;330.13;;;314.33;;
11269;SDS011;5692;48.956;9.200;2024-03-02T06:15:14;311.70;;;296.80;;
11269;SDS011;5692;48.956;9.200;2024-03-02T06:17:40;307.13;;;292.42;;
11269;SDS011;5692;48.956;9.200;2024-03-02T06:20:08;300.60;;;286.25;;
11269;SDS011;5692;48.956;9.200;2024-03-02T06:22:34;310.58;;;295.75;;
11269;SDS011;5692;48.956;9.200;2024-03-02T06:25:00;308.40;;;293.67;;
11269;SDS011;5692;48.956;9.200;2024-03-02T06:27:25;297.60;;;283.40;;
11269;SDS011;5692;48.956;9.200;2024-03-02T06:29:53;294.23;;;280.17;;
11269;SDS011;5692;48.956;9.200;2024-03-02T06:32:19;302.65;;;288.15;;
11269;SDS011;5692;48.956;9.200;2024-03-02T06:34:45;317.67;;;302.47;;
11269;SDS011;5692;48.956;9.200;2024-03-02T06:37:13;265.02;;;252.32;;
11269;SDS011;5692;48.956;9.200;2024-03-02T06:39:41;319.13;;;303.90;;
11269;SDS011;5692;48.956;9.200;2024-03-02T06:42:09;294.77;;;280.67;;
11269;SDS011;5692;48.956;9.200;2024-03-02T06:44:35;290.42;;;276.55;;
11269;SDS011;5692;48.956;9.200;2024-03-02T06:47:00;307.70;;;293.00;;
11269;SDS011;5692;48.956;9.200;2024-03-02T06:49:26;310.93;;;296.07;;
11269;SDS011;5692;48.956;9.200;2024-03-02T06:51:54;306.63;;;291.97;;
11269;SDS011;5692;48.956;9.200;2024-03-02T06:54:20;318.15;;;302.95;;
11269;SDS011;5692;48.956;9.200;2024-03-02T06:56:46;324.77;;;309.27;;
11269;SDS011;5692;48.956;9.200;2024-03-02T06:59:14;327.03;;;311.43;;
11269;SDS011;5692;48.956;9.200;2024-03-02T07:01:42;335.90;;;319.85;;
11269;SDS011;5692;48.956;9.200;2024-03-02T07:04:08;321.90;;;306.52;;
11269;SDS011;5692;48.956;9.200;2024-03-02T07:06:43;331.58;;;315.75;;
11269;SDS011;5692;48.956;9.200;2024-03-02T07:09:20;330.73;;;314.92;;
11269;SDS011;5692;48.956;9.200;2024-03-02T07:11:50;332.45;;;316.55;;
11269;SDS011;5692;48.956;9.200;2024-03-02T07:14:16;344.50;;;328.03;;
11269;SDS011;5692;48.956;9.200;2024-03-02T07:16:55;339.13;;;322.92;;
11269;SDS011;5692;48.956;9.200;2024-03-02T07:19:20;340.13;;;323.88;;
11269;SDS011;5692;48.956;9.200;2024-03-02T07:21:46;338.97;;;322.77;;
11269;SDS011;5692;48.956;9.200;2024-03-02T07:24:11;345.37;;;328.87;;
11269;SDS011;5692;48.956;9.200;2024-03-02T07:26:41;336.40;;;320.33;;
11269;SDS011;5692;48.956;9.200;2024-03-02T07:29:07;350.07;;;333.37;;
11269;SDS011;5692;48.956;9.200;2024-03-02T07:31:55;358.60;;;341.48;;
11269;SDS011;5692;48.956;9.200;2024-03-02T07:34:20;360.17;;;342.98;;
11269;SDS011;5692;48.956;9.200;2024-03-02T07:36:48;366.08;;;348.60;;
11269;SDS011;5692;48.956;9.200;2024-03-02T07:39:16;364.43;;;347.03;;
11269;SDS011;5692;48.956;9.200;2024-03-02T07:41:42;348.05;;;331.42;;
11269;SDS011;5692;48.956;9.200;2024-03-02T07:44:08;356.58;;;339.55;;
11269;SDS011;5692;48.956;9.200;2024-03-02T07:46:34;350.27;;;333.53;;
11269;SDS011;5692;48.956;9.200;2024-03-02T07:49:00;360.03;;;342.83;;
11269;SDS011;5692;48.956;9.200;2024-03-02T07:51:26;357.17;;;340.10;;
11269;SDS011;5692;48.956;9.200;2024-03-02T07:53:58;339.88;;;323.65;;
11269;SDS011;5692;48.956;9.200;2024-03-02T07:56:24;358.65;;;341.52;;
11269;SDS011;5692;48.956;9.200;2024-03-02T07:58:53;363.52;;;346.15;;
11269;SDS011;5692;48.956;9.200;2024-03-02T08:01:19;353.30;;;336.40;;
11269;SDS011;5692;48.956;9.200;2024-03-02T08:03:47;346.33;;;329.80;;
11269;SDS011;5692;48.956;9.200;2024-03-02T08:06:17;354.58;;;337.65;;
11269;SDS011;5692;48.956;9.200;2024-03-02T08:08:47;343.08;;;326.67;;
11269;SDS011;5692;48.956;9.200;2024-03-02T08:11:13;352.95;;;336.05;;
11269;SDS011;5692;48.956;9.200;2024-03-02T08:13:41;346.75;;;330.20;;
11269;SDS011;5692;48.956;9.200;2024-03-02T08:16:15;345.45;;;328.98;;
11269;SDS011;5692;48.956;9.200;2024-03-02T08:18:44;352.13;;;335.33;;
11269;SDS011;5692;48.956;9.200;2024-03-02T08:21:10;349.92;;;333.23;;
11269;SDS011;5692;48.956;9.200;2024-03-02T08:23:36;333.77;;;317.85;;
11269;SDS011;5692;48.956;9.200;2024-03-02T08:26:02;340.77;;;324.50;;
11269;SDS011;5692;48.956;9.200;2024-03-02T08:28:29;344.95;;;328.48;;
11269;SDS011;5692;48.956;9.200;2024-03-02T08:31:13;340.35;;;324.08;;
11269;SDS011;5692;48.956;9.200;2024-03-02T08:33:39;343.80;;;327.38;;
11269;SDS011;5692;48.956;9.200;2024-03-02T08:36:05;336.30;;;320.23;;
11269;SDS011;5692;48.956;9.200;2024-03-02T08:38:32;337.50;;;321.38;;
11269;SDS011;5692;48.956;9.200;2024-03-02T08:40:59;347.42;;;330.83;;
11269;SDS011;5692;48.956;9.200;2024-03-02T08:43:25;354.65;;;337.73;;
11269;SDS011;5692;48.956;9.200;2024-03-02T08:45:51;373.77;;;355.92;;
11269;SDS011;5692;48.956;9.200;2024-03-02T08:48:40;314.80;;;299.75;;
11269;SDS011;5692;48.956;9.200;2024-03-02T08:51:06;325.63;;;310.08;;
11269;SDS011;5692;48.956;9.200;2024-03-02T08:53:35;349.35;;;332.67;;
11269;SDS011;5692;48.956;9.200;2024-03-02T08:56:21;338.00;;;321.85;;
11269;SDS011;5692;48.956;9.200;2024-03-02T08:58:50;364.65;;;347.25;;
11269;SDS011;5692;48.956;9.200;2024-03-02T09:01:24;346.23;;;329.67;;
11269;SDS011;5692;48.956;9.200;2024-03-02T09:03:56;333.67;;;317.73;;
11269;SDS011;5692;48.956;9.200;2024-03-02T09:06:24;333.35;;;317.42;;
11269;SDS011;5692;48.956;9.200;2024-03-02T09:08:49;311.27;;;296.37;;
11269;SDS011;5692;48.956;9.200;2024-03-02T09:11:19;297.20;;;283.00;;
11269;SDS011;5692;48.956;9.200;2024-03-02T09:13:45;328.45;;;312.77;;
11269;SDS011;5692;48.956;9.200;2024-03-02T09:16:11;329.00;;;313.30;;
11269;SDS011;5692;48.956;9.200;2024-03-02T09:18:37;308.50;;;293.80;;
11269;SDS011;5692;48.956;9.200;2024-03-02T09:21:03;325.45;;;309.90;;
11269;SDS011;5692;48.956;9.200;2024-03-02T09:23:29;327.35;;;311.73;;
11269;SDS011;5692;48.956;9.200;2024-03-02T09:25:55;324.70;;;309.20;;
11269;SDS011;5692;48.956;9.200;2024-03-02T09:28:20;335.93;;;319.90;;
11269;SDS011;5692;48.956;9.200;2024-03-02T09:30:46;326.30;;;310.70;;
11269;SDS011;5692;48.956;9.200;2024-03-02T09:33:12;340.00;;;323.77;;
11269;SDS011;5692;48.956;9.200;2024-03-02T09:35:37;328.30;;;312.60;;
11269;SDS011;5692;48.956;9.200;2024-03-02T09:38:06;353.33;;;336.45;;
11269;SDS011;5692;48.956;9.200;2024-03-02T09:40:31;334.43;;;318.47;;
11269;SDS011;5692;48.956;9.200;2024-03-02T09:42:57;367.83;;;350.23;;
11269;SDS011;5692;48.956;9.200;2024-03-02T09:45:24;379.15;;;361.05;;
11269;SDS011;5692;48.956;9.200;2024-03-02T09:47:50;364.98;;;347.58;;
11269;SDS011;5692;48.956;9.200;2024-03-02T09:50:16;398.80;;;379.77;;
11269;SDS011;5692;48.956;9.200;2024-03-02T09:52:42;381.07;;;362.87;;
11269;SDS011;5692;48.956;9.200;2024-03-02T09:55:11;380.33;;;362.17;;
11269;SDS011;5692;48.956;9.200;2024-03-02T09:57:54;387.67;;;369.17;;
11269;SDS011;5692;48.956;9.200;2024-03-02T10:00:23;410.95;;;391.33;;
11269;SDS011;5692;48.956;9.200;2024-03-02T10:02:50;387.50;;;369.00;;
11269;SDS011;5692;48.956;9.200;2024-03-02T10:05:25;398.23;;;379.23;;
11269;SDS011;5692;48.956;9.200;2024-03-02T10:08:02;408.88;;;389.35;;
11269;SDS011;5692;48.956;9.200;2024-03-02T10:11:01;401.85;;;382.65;;
11269;SDS011;5692;48.956;9.200;2024-03-02T10:13:20;417.30;;;397.40;;
11269;SDS011;5692;48.956;9.200;2024-03-02T10:15:50;422.80;;;402.60;;
11269;SDS011;5692;48.956;9.200;2024-03-02T10:18:19;407.93;;;388.47;;
11269;SDS011;5692;48.956;9.200;2024-03-02T10:20:56;442.58;;;421.48;;
11269;SDS011;5692;48.956;9.200;2024-03-02T10:23:39;436.42;;;415.63;;
11269;SDS011;5692;48.956;9.200;2024-03-02T10:26:12;414.13;;;394.37;;
11269;SDS011;5692;48.956;9.200;2024-03-02T10:31:45;415.13;;;395.33;;
11269;SDS011;5692;48.956;9.200;2024-03-02T10:34:13;412.60;;;392.90;;
11269;SDS011;5692;48.956;9.200;2024-03-02T10:36:41;407.55;;;388.10;;
11269;SDS011;5692;48.956;9.200;2024-03-02T10:39:11;435.00;;;414.23;;
11269;SDS011;5692;48.956;9.200;2024-03-02T10:41:40;431.77;;;411.17;;
11269;SDS011;5692;48.956;9.200;2024-03-02T10:44:11;448.02;;;426.65;;
11269;SDS011;5692;48.956;9.200;2024-03-02T10:46:41;429.10;;;408.63;;
11269;SDS011;5692;48.956;9.200;2024-03-02T10:49:10;442.25;;;421.13;;
11269;SDS011;5692;48.956;9.200;2024-03-02T10:51:41;447.83;;;426.45;;
11269;SDS011;5692;48.956;9.200;2024-03-02T10:54:07;463.83;;;441.67;;
11269;SDS011;5692;48.956;9.200;2024-03-02T10:56:43;453.80;;;432.13;;
11269;SDS011;5692;48.956;9.200;2024-03-02T11:01:58;455.25;;;433.55;;
11269;SDS011;5692;48.956;9.200;2024-03-02T11:04:26;450.77;;;429.27;;
11269;SDS011;5692;48.956;9.200;2024-03-02T11:06:54;443.30;;;422.13;;
11269;SDS011;5692;48.956;9.200;2024-03-02T11:09:44;453.60;;;431.95;;
11269;SDS011;5692;48.956;9.200;2024-03-02T11:12:17;451.42;;;429.90;;
11269;SDS011;5692;48.956;9.200;2024-03-02T11:14:48;459.80;;;437.85;;
11269;SDS011;5692;48.956;9.200;2024-03-02T11:17:19;443.40;;;422.25;;
11269;SDS011;5692;48.956;9.200;2024-03-02T11:19:45;464.23;;;442.08;;
11269;SDS011;5692;48.956;9.200;2024-03-02T11:22:12;455.10;;;433.40;;
11269;SDS011;5692;48.956;9.200;2024-03-02T11:24:40;456.98;;;435.15;;
11269;SDS011;5692;48.956;9.200;2024-03-02T11:27:20;473.45;;;450.85;;
11269;SDS011;5692;48.956;9.200;2024-03-02T11:32:59;456.92;;;435.10;;
11269;SDS011;5692;48.956;9.200;2024-03-02T11:35:30;462.02;;;439.98;;
11269;SDS011;5692;48.956;9.200;2024-03-02T11:37:56;457.20;;;435.37;;
11269;SDS011;5692;48.956;9.200;2024-03-02T11:40:26;461.35;;;439.35;;
11269;SDS011;5692;48.956;9.200;2024-03-02T11:42:53;456.30;;;434.50;;
11269;SDS011;5692;48.956;9.200;2024-03-02T11:45:22;453.43;;;431.80;;
11269;SDS011;5692;48.956;9.200;2024-03-02T11:47:55;458.33;;;436.45;;
11269;SDS011;5692;48.956;9.200;2024-03-02T11:50:33;459.88;;;437.92;;
11269;SDS011;5692;48.956;9.200;2024-03-02T11:53:00;454.60;;;432.90;;
11269;SDS011;5692;48.956;9.200;2024-03-02T11:55:26;455.80;;;434.03;;
11269;SDS011;5692;48.956;9.200;2024-03-02T11:57:52;462.77;;;440.67;;
11269;SDS011;5692;48.956;9.200;2024-03-02T12:00:18;466.27;;;444.02;;
11269;SDS011;5692;48.956;9.200;2024-03-02T12:02:47;459.75;;;437.83;;
11269;SDS011;5692;48.956;9.200;2024-03-02T12:05:29;466.45;;;444.15;;
11269;SDS011;5692;48.956;9.200;2024-03-02T12:07:59;470.45;;;448.00;;
11269;SDS011;5692;48.956;9.200;2024-03-02T12:10:26;455.55;;;433.80;;
11269;SDS011;5692;48.956;9.200;2024-03-02T12:12:59;471.92;;;449.40;;
11269;SDS011;5692;48.956;9.200;2024-03-02T12:15:30;465.48;;;443.27;;
11269;SDS011;5692;48.956;9.200;2024-03-02T12:18:01;472.63;;;450.05;;
11269;SDS011;5692;48.956;9.200;2024-03-02T12:20:28;450.17;;;428.70;;
11269;SDS011;5692;48.956;9.200;2024-03-02T12:23:04;468.38;;;446.02;;
11269;SDS011;5692;48.956;9.200;2024-03-02T12:25:31;459.33;;;437.40;;
11269;SDS011;5692;48.956;9.200;2024-03-02T12:28:00;465.25;;;443.05;;
11269;SDS011;5692;48.956;9.200;2024-03-02T12:30:27;461.35;;;439.33;;
11269;SDS011;5692;48.956;9.200;2024-03-02T12:32:55;467.20;;;444.90;;
11269;SDS011;5692;48.956;9.200;2024-03-02T12:35:21;481.77;;;458.77;;
11269;SDS011;5692;48.956;9.200;2024-03-02T12:37:49;463.98;;;441.83;;
11269;SDS011;5692;48.956;9.200;2024-03-02T12:40:17;493.20;;;469.70;;
11269;SDS011;5692;48.956;9.200;2024-03-02T12:42:47;470.42;;;447.98;;
11269;SDS011;5692;48.956;9.200;2024-03-02T12:45:16;454.33;;;432.63;;
11269;SDS011;5692;48.956;9.200;2024-03-02T12:47:49;471.77;;;449.27;;
11269;SDS011;5692;48.956;9.200;2024-03-02T12:50:16;470.83;;;448.35;;
11269;SDS011;5692;48.956;9.200;2024-03-02T12:52:50;479.27;;;456.42;;
11269;SDS011;5692;48.956;9.200;2024-03-02T12:55:17;476.35;;;453.65;;
11269;SDS011;5692;48.956;9.200;2024-03-02T12:57:42;461.50;;;439.50;;
11269;SDS011;5692;48.956;9.200;2024-03-02T13:00:09;474.23;;;451.58;;
11269;SDS011;5692;48.956;9.200;2024-03-02T13:02:36;475.20;;;452.50;;
11269;SDS011;5692;48.956;9.200;2024-03-02T13:05:10;476.25;;;453.50;;
11269;SDS011;5692;48.956;9.200;2024-03-02T13:07:36;482.40;;;459.38;;
11269;SDS011;5692;48.956;9.200;2024-03-02T13:10:03;482.50;;;459.45;;
11269;SDS011;5692;48.956;9.200;2024-03-02T13:12:30;480.45;;;457.55;;
11269;SDS011;5692;48.956;9.200;2024-03-02T13:14:57;479.30;;;456.42;;
11269;SDS011;5692;48.956;9.200;2024-03-02T13:17:23;489.75;;;466.35;;
11269;SDS011;5692;48.956;9.200;2024-03-02T13:19:56;485.70;;;462.50;;
11269;SDS011;5692;48.956;9.200;2024-03-02T13:22:25;471.65;;;449.15;;
11269;SDS011;5692;48.956;9.200;2024-03-02T13:24:54;475.38;;;452.70;;
11269;SDS011;5692;48.956;9.200;2024-03-02T13:27:22;483.27;;;460.20;;
11269;SDS011;5692;48.956;9.200;2024-03-02T13:29:48;471.33;;;448.80;;
11269;SDS011;5692;48.956;9.200;2024-03-02T13:32:14;466.60;;;444.33;;
11269;SDS011;5692;48.956;9.200;2024-03-02T13:34:40;469.63;;;447.20;;
11269;SDS011;5692;48.956;9.200;2024-03-02T13:37:08;472.60;;;450.05;;
11269;SDS011;5692;48.956;9.200;2024-03-02T13:39:42;471.93;;;449.43;;
11269;SDS011;5692;48.956;9.200;2024-03-02T13:42:11;480.20;;;457.27;;
11269;SDS011;5692;48.956;9.200;2024-03-02T13:44:39;474.98;;;452.30;;
11269;SDS011;5692;48.956;9.200;2024-03-02T13:47:08;473.40;;;450.83;;
11269;SDS011;5692;48.956;9.200;2024-03-02T13:49:37;468.70;;;446.30;;
11269;SDS011;5692;48.956;9.200;2024-03-02T13:52:09;469.92;;;447.52;;
11269;SDS011;5692;48.956;9.200;2024-03-02T13:54:38;473.48;;;450.88;;
11269;SDS011;5692;48.956;9.200;2024-03-02T13:57:04;477.73;;;454.92;;
11269;SDS011;5692;48.956;9.200;2024-03-02T13:59:33;476.73;;;453.98;;
11269;SDS011;5692;48.956;9.200;2024-03-02T14:02:03;470.02;;;447.60;;
11269;SDS011;5692;48.956;9.200;2024-03-02T14:04:30;474.15;;;451.52;;
11269;SDS011;5692;48.956;9.200;2024-03-02T14:06:58;474.80;;;452.13;;
11269;SDS011;5692;48.956;9.200;2024-03-02T14:09:26;476.52;;;453.77;;
11269;SDS011;5692;48.956;9.200;2024-03-02T14:11:53;469.95;;;447.50;;
11269;SDS011;5692;48.956;9.200;2024-03-02T14:14:19;475.92;;;453.23;;
11269;SDS011;5692;48.956;9.200;2024-03-02T14:16:46;470.60;;;448.13;;
11269;SDS011;5692;48.956;9.200;2024-03-02T14:19:12;468.42;;;446.08;;
11269;SDS011;5692;48.956;9.200;2024-03-02T14:21:42;488.77;;;465.48;;
11269;SDS011;5692;48.956;9.200;2024-03-02T14:24:08;488.00;;;464.70;;